createdAt,value
2022-08-05T00:01:48.936Z,1.77
2022-08-05T00:04:55.178Z,1.85
2022-08-05T00:08:00.027Z,1.70
2022-08-05T00:11:20.715Z,1.70
2022-08-05T00:14:31.531Z,1.85
2022-08-05T00:17:33.589Z,2.45
2022-08-05T00:20:35.512Z,2.05
2022-08-05T00:23:45.833Z,2.00
2022-08-05T00:26:55.252Z,1.80
2022-08-05T00:29:57.542Z,2.05
2022-08-05T00:33:02.232Z,2.10
2022-08-05T00:36:16.225Z,1.88
2022-08-05T00:39:26.219Z,2.08
2022-08-05T00:42:42.099Z,2.20
2022-08-05T00:45:50.218Z,1.90
2022-08-05T00:48:52.659Z,1.70
2022-08-05T00:51:54.357Z,2.20
2022-08-05T00:54:56.793Z,1.88
2022-08-05T00:57:59.398Z,1.77
2022-08-05T01:01:01.251Z,2.35
2022-08-05T01:04:03.853Z,2.10
2022-08-05T01:07:15.735Z,1.73
2022-08-05T01:10:27.332Z,1.90
2022-08-05T01:13:57.527Z,1.80
2022-08-05T01:17:08.855Z,1.88
2022-08-05T01:20:34.349Z,1.83
2022-08-05T01:24:01.728Z,2.17
2022-08-05T01:27:25.396Z,2.05
2022-08-05T01:30:34.017Z,1.83
2022-08-05T01:33:49.309Z,1.98
2022-08-05T01:37:18.011Z,1.95
2022-08-05T01:40:29.921Z,2.10
2022-08-05T01:43:33.632Z,2.00
2022-08-05T01:46:42.579Z,2.10
2022-08-05T01:50:00.235Z,2.38
2022-08-05T01:53:10.123Z,1.92
2022-08-05T01:58:13.193Z,1.90
2022-08-05T01:59:41.195Z,2.20
2022-08-05T02:02:54.939Z,2.05
2022-08-05T02:05:57.899Z,1.98
2022-08-05T02:12:11.530Z,2.00
2022-08-05T02:15:19.822Z,2.17
2022-08-05T02:18:35.254Z,2.10
2022-08-05T02:21:46.781Z,2.30
2022-08-05T02:25:03.483Z,1.75
2022-08-05T02:28:08.679Z,2.10
2022-08-05T02:31:23.815Z,1.77
2022-08-05T02:34:28.996Z,2.20
2022-08-05T02:37:34.716Z,1.85
2022-08-05T02:40:41.107Z,2.00
2022-08-05T02:44:06.830Z,1.70
2022-08-05T02:47:09.983Z,2.25
2022-08-05T02:50:13.854Z,2.73
2022-08-05T02:53:21.982Z,2.17
2022-08-05T02:56:24.751Z,1.92
2022-08-05T02:59:28.492Z,2.05
2022-08-05T03:02:42.905Z,2.30
2022-08-05T03:06:55.567Z,2.67
2022-08-05T03:09:15.855Z,2.40
2022-08-05T03:12:39.474Z,2.78
2022-08-05T03:15:44.343Z,3.13
2022-08-05T03:18:46.420Z,2.72
2022-08-05T03:21:50.537Z,3.40
2022-08-05T03:24:53.106Z,3.30
2022-08-05T03:27:59.819Z,3.35
2022-08-05T03:31:03.875Z,3.78
2022-08-05T03:34:05.996Z,3.42
2022-08-05T03:37:07.901Z,3.25
2022-08-05T03:40:12.050Z,3.40
2022-08-05T03:43:58.868Z,3.55
2022-08-05T03:46:36.257Z,3.08
2022-08-05T03:49:51.864Z,3.10
2022-08-05T03:55:50.338Z,3.35
2022-08-05T03:56:42.054Z,2.97
2022-08-05T03:59:54.759Z,3.60
2022-08-05T04:03:02.797Z,3.42
2022-08-05T04:06:06.758Z,3.92
2022-08-05T04:09:11.068Z,3.25
2022-08-05T04:12:23.683Z,3.50
2022-08-05T04:15:32.918Z,3.70
2022-08-05T04:18:38.097Z,3.50
2022-08-05T04:22:05.819Z,3.50
2022-08-05T04:25:03.487Z,3.05
2022-08-05T04:28:11.344Z,3.55
2022-08-05T04:31:14.804Z,3.53
2022-08-05T04:34:32.336Z,2.90
2022-08-05T04:38:00.856Z,3.50
2022-08-05T04:40:58.161Z,3.63
2022-08-05T04:44:00.345Z,3.90
2022-08-05T04:47:12.064Z,3.97
2022-08-05T04:50:34.343Z,3.30
2022-08-05T04:53:40.186Z,3.38
2022-08-05T04:56:42.165Z,3.30
2022-08-05T04:59:45.535Z,3.10
2022-08-05T05:02:50.057Z,3.22
2022-08-05T05:06:40.590Z,2.80
2022-08-05T05:09:16.934Z,2.45
2022-08-05T05:12:19.366Z,3.03
2022-08-05T05:15:57.320Z,4.32
2022-08-05T05:18:57.100Z,3.92
2022-08-05T05:22:23.965Z,3.58
2022-08-05T05:25:33.051Z,3.58
2022-08-05T05:28:42.693Z,3.53
2022-08-05T05:31:46.750Z,3.53
2022-08-05T05:34:48.480Z,3.30
2022-08-05T05:38:00.040Z,3.45
2022-08-05T05:41:03.245Z,2.72
2022-08-05T05:44:35.895Z,2.67
2022-08-05T05:48:06.926Z,2.70
2022-08-05T05:51:00.281Z,2.80
2022-08-05T05:54:17.142Z,2.63
2022-08-05T05:57:19.887Z,2.45
2022-08-05T06:00:27.565Z,2.60
2022-08-05T06:03:53.853Z,2.72
2022-08-05T06:06:51.513Z,2.45
2022-08-05T06:10:04.409Z,2.40
2022-08-05T06:13:08.794Z,2.10
2022-08-05T06:16:29.111Z,2.30
2022-08-05T06:19:34.568Z,2.40
2022-08-05T06:22:37.330Z,2.60
2022-08-05T06:26:12.836Z,2.50
2022-08-05T06:29:23.697Z,2.40
2022-08-05T06:32:28.850Z,2.20
2022-08-05T06:36:03.472Z,2.47
2022-08-05T06:38:54.678Z,2.22
2022-08-05T06:41:59.247Z,2.25
2022-08-05T06:45:05.590Z,2.53
2022-08-05T06:48:37.078Z,2.40
2022-08-05T06:51:32.894Z,2.15
2022-08-05T06:54:34.762Z,2.60
2022-08-05T06:57:57.809Z,2.50
2022-08-05T07:01:01.237Z,2.38
2022-08-05T07:04:03.281Z,2.70
2022-08-05T07:07:07.917Z,3.60
2022-08-05T07:10:10.529Z,2.73
2022-08-05T07:13:56.751Z,2.92
2022-08-05T07:17:58.198Z,2.25
2022-08-05T07:20:33.422Z,2.35
2022-08-05T07:23:37.420Z,2.50
2022-08-05T07:26:51.903Z,2.30
2022-08-05T07:30:24.670Z,2.38
2022-08-05T07:33:17.103Z,2.70
2022-08-05T07:36:21.200Z,2.35
2022-08-05T07:40:03.820Z,2.28
2022-08-05T07:42:45.526Z,2.22
2022-08-05T07:45:57.682Z,2.45
2022-08-05T07:49:05.907Z,2.33
2022-08-05T07:52:08.143Z,2.78
2022-08-05T07:55:44.440Z,2.50
2022-08-05T07:58:57.851Z,2.30
2022-08-05T08:01:57.756Z,2.60
2022-08-05T08:05:00.559Z,2.33
2022-08-05T08:08:02.971Z,2.22
2022-08-05T08:11:04.776Z,2.30
2022-08-05T08:14:10.869Z,2.47
2022-08-05T08:17:21.498Z,2.35
2022-08-05T08:21:00.392Z,2.45
2022-08-05T08:24:02.399Z,2.40
2022-08-05T08:27:07.353Z,2.30
2022-08-05T08:30:29.414Z,2.25
2022-08-05T08:33:37.368Z,2.40
2022-08-05T08:36:50.622Z,2.42
2022-08-05T08:39:56.972Z,2.40
2022-08-05T08:45:16.364Z,2.40
2022-08-05T08:46:22.914Z,2.10
2022-08-05T08:50:22.346Z,2.17
2022-08-05T08:52:53.147Z,1.90
2022-08-05T08:56:04.843Z,2.53
2022-08-05T08:59:14.989Z,2.30
2022-08-05T09:02:24.229Z,1.90
2022-08-05T09:05:38.808Z,2.40
2022-08-05T09:08:50.575Z,2.35
2022-08-05T09:11:55.305Z,2.00
2022-08-05T09:15:06.423Z,2.20
2022-08-05T09:18:09.808Z,2.03
2022-08-05T09:21:20.946Z,2.10
2022-08-05T09:24:39.969Z,1.92
2022-08-05T09:28:03.869Z,2.03
2022-08-05T09:31:18.137Z,2.33
2022-08-05T09:34:45.537Z,2.20
2022-08-05T09:38:12.222Z,1.90
2022-08-05T09:41:18.657Z,1.92
2022-08-05T09:44:34.720Z,1.90
2022-08-05T09:47:55.542Z,1.80
2022-08-05T09:51:14.769Z,1.98
2022-08-05T09:54:21.442Z,1.88
2022-08-05T09:57:33.771Z,1.90
2022-08-05T10:00:37.275Z,2.03
2022-08-05T10:03:58.606Z,1.60
2022-08-05T10:07:01.610Z,1.90
2022-08-05T10:10:32.308Z,2.03
2022-08-05T10:13:47.751Z,1.98
2022-08-05T10:16:52.445Z,1.88
2022-08-05T10:20:03.848Z,1.88
2022-08-05T10:23:34.339Z,1.70
2022-08-05T10:26:51.397Z,1.60
2022-08-05T10:30:07.180Z,1.85
2022-08-05T10:33:17.070Z,2.30
2022-08-05T10:36:23.599Z,1.60
2022-08-05T10:40:03.585Z,2.10
2022-08-05T10:43:02.630Z,1.60
2022-08-05T10:46:08.994Z,1.90
2022-08-05T10:49:16.780Z,1.50
2022-08-05T10:52:53.917Z,1.85
2022-08-05T10:56:25.494Z,1.70
2022-08-05T11:00:02.570Z,1.55
2022-08-05T11:03:23.573Z,1.88
2022-08-05T11:06:30.847Z,1.60
2022-08-05T11:10:03.616Z,1.83
2022-08-05T11:13:57.946Z,1.83
2022-08-05T11:17:57.884Z,1.88
2022-08-05T11:20:51.030Z,1.90
2022-08-05T11:24:04.326Z,1.80
2022-08-05T11:27:36.998Z,1.85
2022-08-05T11:31:06.493Z,1.90
2022-08-05T11:34:08.739Z,2.10
2022-08-05T11:38:30.973Z,1.83
2022-08-05T11:41:54.751Z,1.77
2022-08-05T11:44:52.979Z,1.92
2022-08-05T11:47:57.158Z,2.13
2022-08-05T11:51:01.957Z,2.03
2022-08-05T11:54:04.035Z,1.77
2022-08-05T11:57:08.408Z,2.10
2022-08-05T12:00:31.669Z,1.98
2022-08-05T12:03:57.217Z,1.77
2022-08-05T12:07:02.098Z,1.70
2022-08-05T12:10:09.344Z,2.22
2022-08-05T12:13:27.789Z,1.52
2022-08-05T12:16:41.346Z,1.90
2022-08-05T12:20:27.063Z,1.98
2022-08-05T12:23:15.992Z,1.73
2022-08-05T12:26:17.690Z,1.90
2022-08-05T12:29:23.493Z,1.95
2022-08-05T12:32:25.441Z,1.60
2022-08-05T12:35:39.643Z,1.70
2022-08-05T12:38:42.108Z,2.00
2022-08-05T12:41:45.632Z,1.98
2022-08-05T12:44:48.047Z,1.75
2022-08-05T12:48:01.519Z,2.15
2022-08-05T12:52:10.580Z,1.90
2022-08-05T12:54:42.014Z,1.90
2022-08-05T12:58:38.364Z,1.88
2022-08-05T13:02:00.554Z,1.90
2022-08-05T13:04:30.025Z,2.10
2022-08-05T13:07:57.357Z,1.70
2022-08-05T13:11:00.036Z,2.00
2022-08-05T13:14:05.235Z,2.05
2022-08-05T13:17:31.529Z,2.03
2022-08-05T13:20:35.362Z,1.70
2022-08-05T13:23:50.648Z,1.63
2022-08-05T13:26:53.966Z,1.60
2022-08-05T13:30:32.664Z,1.58
2022-08-05T13:34:23.605Z,1.60
2022-08-05T13:36:39.559Z,1.75
2022-08-05T13:40:13.400Z,2.17
2022-08-05T13:43:03.606Z,1.80
2022-08-05T13:46:14.807Z,2.10
2022-08-05T13:49:17.848Z,2.25
2022-08-05T13:52:29.246Z,1.98
2022-08-05T13:55:41.164Z,2.20
2022-08-05T13:58:43.914Z,2.03
2022-08-05T14:01:59.442Z,2.30
2022-08-05T14:05:29.298Z,3.03
2022-08-05T14:08:32.504Z,2.25
2022-08-05T14:12:04.257Z,1.83
2022-08-05T14:15:01.055Z,2.00
2022-08-05T14:18:17.754Z,2.03
2022-08-05T14:22:07.360Z,2.15
2022-08-05T14:24:42.420Z,2.00
2022-08-05T14:27:49.566Z,1.85
2022-08-05T14:30:51.909Z,1.60
2022-08-05T14:33:59.959Z,2.28
2022-08-05T14:37:04.577Z,1.67
2022-08-05T14:40:07.097Z,1.98
2022-08-05T14:43:11.053Z,1.80
2022-08-05T14:46:12.906Z,1.77
2022-08-05T14:49:14.682Z,1.50
2022-08-05T14:52:30.719Z,1.70
2022-08-05T14:55:40.211Z,1.67
2022-08-05T14:58:47.766Z,1.58
2022-08-05T15:01:54.957Z,3.35
2022-08-05T15:04:58.441Z,2.20
2022-08-05T15:08:10.616Z,1.73
2022-08-05T15:11:18.732Z,1.92
2022-08-05T15:14:34.943Z,1.85
2022-08-05T15:17:45.634Z,1.70
2022-08-05T15:20:49.677Z,1.90
2022-08-05T15:23:52.690Z,1.52
2022-08-05T15:26:55.842Z,1.80
2022-08-05T15:29:58.053Z,1.80
2022-08-05T15:33:00.491Z,1.50
2022-08-05T15:36:05.164Z,1.70
2022-08-05T15:40:58.549Z,1.70
2022-08-05T15:42:55.914Z,1.63
2022-08-05T15:46:00.551Z,1.85
2022-08-05T15:49:11.375Z,1.70
2022-08-05T15:52:29.585Z,1.77
2022-08-05T15:56:02.908Z,2.05
2022-08-05T15:58:58.714Z,1.75
2022-08-05T16:02:01.274Z,1.88
2022-08-05T16:05:03.525Z,1.88
2022-08-05T16:08:07.219Z,1.88
2022-08-05T16:11:13.265Z,1.90
2022-08-05T16:14:17.472Z,2.10
2022-08-05T16:17:19.584Z,2.08
2022-08-05T16:20:21.356Z,1.70
2022-08-05T16:23:24.332Z,1.83
2022-08-05T16:26:26.559Z,2.05
2022-08-05T16:29:36.971Z,1.90
2022-08-05T16:32:38.951Z,2.05
2022-08-05T16:35:42.871Z,1.90
2022-08-05T16:38:54.767Z,1.92
2022-08-05T16:42:13.584Z,1.80
2022-08-05T16:46:05.136Z,1.95
2022-08-05T16:48:40.701Z,2.00
2022-08-05T16:51:50.894Z,2.10
2022-08-05T16:54:53.204Z,2.40
2022-08-05T16:58:01.336Z,2.40
2022-08-05T17:01:06.683Z,2.38
2022-08-05T17:04:12.265Z,2.33
2022-08-05T17:10:38.500Z,2.35
2022-08-05T17:13:41.458Z,2.30
2022-08-05T17:16:43.936Z,2.10
2022-08-05T17:19:55.398Z,2.33
2022-08-05T17:22:57.693Z,2.25
2022-08-05T17:26:00.777Z,2.50
2022-08-05T17:29:04.254Z,2.55
2022-08-05T17:32:17.018Z,2.33
2022-08-05T17:35:20.871Z,2.40
2022-08-05T17:38:22.981Z,2.85
2022-08-05T17:42:17.692Z,2.90
2022-08-05T17:44:50.178Z,3.00
2022-08-05T17:47:55.861Z,3.50
2022-08-05T17:50:58.061Z,3.28
2022-08-05T17:54:00.160Z,2.78
2022-08-05T17:57:01.890Z,3.90
2022-08-05T18:00:05.872Z,3.83
2022-08-05T18:03:08.081Z,4.03
2022-08-05T18:06:12.045Z,3.50
2022-08-05T18:09:17.885Z,3.78
2022-08-05T18:12:22.373Z,3.40
2022-08-05T18:15:34.152Z,3.70
2022-08-05T18:18:39.883Z,3.45
2022-08-05T18:22:08.917Z,4.47
2022-08-05T18:25:04.140Z,5.15
2022-08-05T18:28:09.481Z,4.38
2022-08-05T18:31:11.212Z,3.75
2022-08-05T18:34:13.145Z,4.13
2022-08-05T18:37:33.678Z,3.13
2022-08-05T18:41:54.169Z,3.10
2022-08-05T18:44:06.196Z,3.38
2022-08-05T18:47:09.679Z,3.10
2022-08-05T18:50:45.069Z,2.90
2022-08-05T18:53:50.369Z,3.28
2022-08-05T18:56:52.421Z,3.47
2022-08-05T19:00:03.179Z,3.47
2022-08-05T19:03:09.366Z,3.33
2022-08-05T19:06:21.833Z,3.60
2022-08-05T19:09:24.759Z,3.33
2022-08-05T19:15:59.073Z,5.85
2022-08-05T19:18:56.683Z,6.03
2022-08-05T19:21:58.706Z,7.40
2022-08-05T19:25:01.006Z,7.22
2022-08-05T19:28:04.921Z,7.43
2022-08-05T19:31:06.606Z,4.82
2022-08-05T19:34:09.042Z,4.78
2022-08-05T19:37:10.816Z,4.57
2022-08-05T19:40:15.021Z,4.28
2022-08-05T19:43:31.318Z,4.20
2022-08-05T19:46:39.422Z,3.80
2022-08-05T19:49:41.268Z,2.90
2022-08-05T19:52:47.796Z,3.40
2022-08-05T19:56:14.993Z,3.00
2022-08-05T19:59:51.014Z,3.42
2022-08-05T20:02:33.765Z,2.92
2022-08-05T20:05:43.317Z,2.50
2022-08-05T20:08:52.381Z,2.92
2022-08-05T20:11:54.744Z,3.40
2022-08-05T20:14:56.808Z,4.72
2022-08-05T20:18:02.014Z,3.65
2022-08-05T20:21:06.951Z,3.85
2022-08-05T20:24:11.481Z,3.22
2022-08-05T20:27:13.421Z,2.80
2022-08-05T20:30:18.343Z,2.70
2022-08-05T20:33:21.692Z,2.35
2022-08-05T20:36:24.303Z,2.47
2022-08-05T20:39:35.615Z,3.33
2022-08-05T20:42:38.704Z,2.72
2022-08-05T20:45:56.429Z,2.97
2022-08-05T20:48:59.107Z,2.70
2022-08-05T20:52:01.219Z,2.83
2022-08-05T20:55:54.946Z,2.80
2022-08-05T20:58:24.991Z,3.00
2022-08-05T21:01:38.547Z,3.00
2022-08-05T21:04:40.734Z,2.75
2022-08-05T21:07:50.587Z,2.60
2022-08-05T21:10:53.961Z,3.08
2022-08-05T21:13:57.011Z,2.70
2022-08-05T21:16:58.869Z,2.90
2022-08-05T21:20:07.065Z,3.00
2022-08-05T21:23:12.903Z,3.53
2022-08-05T21:26:15.871Z,3.70
2022-08-05T21:29:18.076Z,3.40
2022-08-05T21:32:20.381Z,3.55
2022-08-05T21:35:29.588Z,4.05
2022-08-05T21:38:32.312Z,3.10
2022-08-05T21:41:35.594Z,3.35
2022-08-05T21:44:37.608Z,3.63
2022-08-05T21:47:56.699Z,3.92
2022-08-05T21:50:59.453Z,4.05
2022-08-05T21:54:03.821Z,3.65
2022-08-05T21:57:29.729Z,4.47
2022-08-05T22:00:28.618Z,4.20
2022-08-05T22:03:48.513Z,4.25
2022-08-05T22:06:52.666Z,4.32
2022-08-05T22:09:54.438Z,3.97
2022-08-05T22:13:08.957Z,4.05
2022-08-05T22:16:41.945Z,4.40
2022-08-05T22:20:00.104Z,4.47
2022-08-05T22:23:22.550Z,4.50
2022-08-05T22:26:42.899Z,4.30
2022-08-05T22:29:54.261Z,4.38
2022-08-05T22:32:56.079Z,4.05
2022-08-05T22:35:59.896Z,4.40
2022-08-05T22:39:04.300Z,4.53
2022-08-05T22:42:15.450Z,5.10
2022-08-05T22:45:27.609Z,5.20
2022-08-05T22:48:32.671Z,4.65
2022-08-05T22:52:04.547Z,5.45
2022-08-05T22:54:56.325Z,5.00
2022-08-05T22:57:58.018Z,5.65
2022-08-05T23:00:59.971Z,5.55
2022-08-05T23:04:01.743Z,5.68
2022-08-05T23:07:04.031Z,4.50
2022-08-05T23:10:09.379Z,5.28
2022-08-05T23:13:11.133Z,4.75
2022-08-05T23:16:12.820Z,5.13
2022-08-05T23:19:27.864Z,5.43
2022-08-05T23:22:30.732Z,5.60
2022-08-05T23:25:51.132Z,5.80
2022-08-05T23:28:55.041Z,6.20
2022-08-05T23:31:56.764Z,5.90
2022-08-05T23:34:59.051Z,6.00
2022-08-05T23:38:00.994Z,6.25
2022-08-05T23:41:02.688Z,6.20
2022-08-05T23:44:08.606Z,6.35
2022-08-05T23:47:15.219Z,6.97
2022-08-05T23:50:20.251Z,6.78
2022-08-05T23:53:23.143Z,7.90
2022-08-05T23:56:27.323Z,6.82
